Time;durP1;ratioP1;P1;durP2;ratioP2;P2;SDS_P1;SDS_P2;PMS_P1;PMS_P2;Temp;Humidity;BMP_temperature;BMP_pressure;BME280_temperature;BME280_humidity;BME280_pressure;Samples;Min_cycle;Max_cycle;Signal;HPM_P1;HPM_P2
2022/02/26 00:02:15;;;;;;;6.00;1.90;;;2.70;90.60;;;;;;6199897;23;20190;-85
2022/02/26 00:04:58;;;;;;;5.37;2.13;;;2.80;90.50;;;;;;6199214;23;20206;-85
2022/02/26 00:07:28;;;;;;;10.33;3.03;;;2.90;89.40;;;;;;6193028;23;20201;-87
2022/02/26 00:09:56;;;;;;;6.60;2.10;;;3.00;89.00;;;;;;6200751;23;20217;-87
2022/02/26 00:12:23;;;;;;;5.83;2.10;;;3.00;88.90;;;;;;6202140;23;20182;-86
2022/02/26 00:15:00;;;;;;;4.77;2.33;;;2.90;89.20;;;;;;6200082;23;20174;-86
2022/02/26 00:17:28;;;;;;;6.20;2.33;;;3.00;87.80;;;;;;6198794;23;20167;-87
2022/02/26 00:19:56;;;;;;;5.60;2.10;;;3.10;87.80;;;;;;6172857;23;20171;-86
2022/02/26 00:22:23;;;;;;;10.50;2.23;;;3.00;87.70;;;;;;6171961;23;20235;-86
2022/02/26 00:24:50;;;;;;;6.00;2.40;;;3.00;87.80;;;;;;6198208;23;20206;-86
2022/02/26 00:27:17;;;;;;;5.47;2.37;;;3.00;89.50;;;;;;6173690;23;20194;-89
2022/02/26 00:29:45;;;;;;;5.23;2.43;;;3.00;88.60;;;;;;6198520;23;20230;-86
2022/02/26 00:32:13;;;;;;;4.87;2.10;;;3.00;88.10;;;;;;6198227;23;20247;-86
2022/02/26 00:34:41;;;;;;;6.23;2.20;;;3.10;87.80;;;;;;6201074;23;20213;-86
2022/02/26 00:37:08;;;;;;;5.17;2.10;;;3.00;87.70;;;;;;6200899;23;20205;-87
2022/02/26 00:39:35;;;;;;;7.20;2.60;;;2.90;87.70;;;;;;6201250;23;20206;-88
2022/02/26 00:42:04;;;;;;;5.00;2.20;;;2.90;88.70;;;;;;6200615;23;20179;-87
2022/02/26 00:44:31;;;;;;;9.33;2.50;;;2.90;87.70;;;;;;6201386;23;20209;-86
2022/02/26 00:46:58;;;;;;;4.87;2.00;;;2.90;87.70;;;;;;6201969;23;20209;-86
2022/02/26 00:52:13;;;;;;;6.47;2.50;;;2.80;88.80;;;;;;6201600;23;20185;-86
2022/02/26 00:54:41;;;;;;;6.97;2.70;;;2.80;88.10;;;;;;6201912;23;20217;-86
2022/02/26 00:57:08;;;;;;;6.47;2.40;;;2.80;88.90;;;;;;6176297;23;20519;-86
2022/02/26 00:59:35;;;;;;;7.83;2.57;;;2.60;89.40;;;;;;6201472;23;20213;-86
2022/02/26 01:02:03;;;;;;;7.43;2.50;;;2.60;90.20;;;;;;6202275;23;20186;-87
2022/02/26 01:04:32;;;;;;;7.30;2.97;;;2.50;90.20;;;;;;6200397;23;20233;-86
2022/02/26 01:07:14;;;;;;;5.93;2.50;;;2.40;90.50;;;;;;6151272;23;20199;-87
2022/02/26 01:09:46;;;;;;;8.53;3.40;;;2.30;90.70;;;;;;6174875;23;20281;-86
2022/02/26 01:12:14;;;;;;;8.93;2.67;;;2.40;90.80;;;;;;6176202;23;20201;-86
2022/02/26 01:14:43;;;;;;;6.30;2.73;;;2.50;90.80;;;;;;6175227;23;20209;-86
2022/02/26 01:17:13;;;;;;;4.43;2.70;;;2.70;90.40;;;;;;6202166;23;20171;-86
2022/02/26 01:19:42;;;;;;;7.83;2.60;;;2.70;90.20;;;;;;6175548;23;20203;-87
2022/02/26 01:22:12;;;;;;;6.50;2.70;;;2.70;90.00;;;;;;6202001;23;20186;-86
2022/02/26 01:24:40;;;;;;;6.23;2.60;;;2.70;90.40;;;;;;6150767;23;20233;-86
2022/02/26 01:27:32;;;;;;;6.83;3.17;;;2.70;90.10;;;;;;6201376;23;20526;-86
2022/02/26 01:30:02;;;;;;;4.07;2.87;;;2.70;90.10;;;;;;6201309;23;20202;-86
2022/02/26 01:32:29;;;;;;;9.33;2.80;;;2.60;90.40;;;;;;6176978;23;20206;-86
2022/02/26 01:34:57;;;;;;;7.37;3.00;;;2.60;90.40;;;;;;6200617;23;20202;-86
2022/02/26 01:37:33;;;;;;;6.47;2.93;;;2.60;90.50;;;;;;6175619;23;20257;-86
2022/02/26 01:40:00;;;;;;;6.93;2.87;;;2.60;90.70;;;;;;6176019;23;20273;-86
2022/02/26 01:42:46;;;;;;;6.73;3.10;;;2.60;90.50;;;;;;6176914;23;20181;-87
2022/02/26 01:47:56;;;;;;;4.80;3.27;;;2.60;90.30;;;;;;6200357;23;20202;-87
2022/02/26 01:50:25;;;;;;;7.23;2.90;;;2.60;90.80;;;;;;6202297;23;20262;-86
2022/02/26 01:52:52;;;;;;;6.23;2.83;;;2.70;90.60;;;;;;6199934;23;20178;-86
2022/02/26 01:55:19;;;;;;;7.53;2.77;;;2.70;90.70;;;;;;6175866;23;20202;-86
2022/02/26 01:57:47;;;;;;;6.07;3.00;;;2.70;90.60;;;;;;6201514;23;20181;-86
2022/02/26 02:00:16;;;;;;;6.40;2.60;;;2.70;90.30;;;;;;6201584;23;20238;-86
2022/02/26 02:02:43;;;;;;;4.60;2.77;;;2.70;90.30;;;;;;6150938;23;20210;-86
2022/02/26 02:05:11;;;;;;;4.57;2.70;;;2.70;90.60;;;;;;6200003;23;20202;-86
2022/02/26 02:07:40;;;;;;;8.73;2.70;;;2.80;90.40;;;;;;6174309;23;20225;-88
2022/02/26 02:10:08;;;;;;;4.73;2.60;;;2.80;90.20;;;;;;6175910;23;20206;-86
2022/02/26 02:12:36;;;;;;;5.50;2.60;;;2.80;90.20;;;;;;6200967;23;20654;-87
2022/02/26 02:15:04;;;;;;;5.97;2.87;;;2.80;90.20;;;;;;6173783;23;20250;-86
2022/02/26 02:17:35;;;;;;;4.13;2.40;;;2.80;89.40;;;;;;6201119;23;20194;-88
2022/02/26 02:20:03;;;;;;;6.77;2.60;;;2.70;88.30;;;;;;6201081;23;20226;-86
2022/02/26 02:22:31;;;;;;;3.67;2.50;;;2.70;87.80;;;;;;6201884;23;20217;-88
2022/02/26 02:25:00;;;;;;;4.90;2.47;;;2.60;88.70;;;;;;6201213;23;20233;-86
2022/02/26 02:27:28;;;;;;;5.63;2.67;;;2.70;87.60;;;;;;6176578;23;20627;-86
2022/02/26 02:29:56;;;;;;;5.17;2.73;;;2.60;88.50;;;;;;6200552;23;20677;-88
2022/02/26 02:32:39;;;;;;;9.57;2.80;;;2.50;90.00;;;;;;6201627;23;20218;-87
2022/02/26 02:35:07;;;;;;;7.67;2.40;;;2.40;88.80;;;;;;6153766;23;20212;-86
2022/02/26 02:37:39;;;;;;;5.90;2.50;;;2.50;88.10;;;;;;6201441;23;20171;-86
2022/02/26 02:40:07;;;;;;;2.87;2.00;;;2.50;87.40;;;;;;6175490;23;20226;-86
2022/02/26 02:42:35;;;;;;;5.07;2.53;;;2.60;87.50;;;;;;6175828;23;20623;-87
2022/02/26 02:45:04;;;;;;;6.57;2.33;;;2.60;87.50;;;;;;6174421;23;20210;-86
2022/02/26 02:47:31;;;;;;;4.90;1.90;;;2.60;87.50;;;;;;6200178;23;20230;-86
2022/02/26 02:49:58;;;;;;;5.67;2.03;;;2.60;87.50;;;;;;6200444;23;20213;-86
2022/02/26 02:52:25;;;;;;;5.27;2.30;;;2.70;87.50;;;;;;6201718;23;20486;-86
2022/02/26 02:54:54;;;;;;;4.80;2.03;;;2.70;87.50;;;;;;6201860;23;20198;-86
2022/02/26 02:57:25;;;;;;;9.00;2.67;;;2.70;86.60;;;;;;6201080;23;20198;-86
2022/02/26 02:59:53;;;;;;;6.97;2.30;;;2.80;86.20;;;;;;6195314;23;20185;-86
2022/02/26 03:02:20;;;;;;;3.93;2.40;;;2.70;86.00;;;;;;6174365;23;20603;-86
2022/02/26 03:04:47;;;;;;;5.37;2.00;;;2.80;86.00;;;;;;6150694;23;20185;-86
2022/02/26 03:07:16;;;;;;;5.83;2.57;;;2.80;85.20;;;;;;6175219;23;20179;-88
2022/02/26 03:09:43;;;;;;;6.90;2.50;;;2.80;85.00;;;;;;6200810;23;20175;-89
2022/02/26 03:12:31;;;;;;;6.80;2.07;;;2.90;84.10;;;;;;6201384;23;20159;-88
2022/02/26 03:14:58;;;;;;;3.73;2.20;;;2.80;84.60;;;;;;6196018;23;20636;-86
2022/02/26 03:17:26;;;;;;;6.70;2.20;;;2.80;84.90;;;;;;6200571;23;20175;-86
2022/02/26 03:19:53;;;;;;;4.07;1.97;;;2.80;83.60;;;;;;6175213;23;20220;-85
2022/02/26 03:22:21;;;;;;;5.50;2.10;;;2.80;83.10;;;;;;6201407;23;20179;-86
2022/02/26 03:25:05;;;;;;;3.73;1.97;;;2.80;83.80;;;;;;6149556;23;20221;-87
2022/02/26 03:27:33;;;;;;;8.10;2.30;;;2.80;82.80;;;;;;6200789;23;20181;-87
2022/02/26 03:30:02;;;;;;;7.23;2.30;;;2.80;83.00;;;;;;6200379;23;20225;-86
2022/02/26 03:32:29;;;;;;;5.13;2.17;;;2.80;83.40;;;;;;6174284;23;20218;-85
2022/02/26 03:34:56;;;;;;;5.30;2.60;;;2.80;83.70;;;;;;6174871;23;20605;-86
2022/02/26 03:37:26;;;;;;;5.30;2.63;;;2.80;85.30;;;;;;6201132;23;20221;-86
2022/02/26 03:39:53;;;;;;;5.27;2.30;;;2.80;84.60;;;;;;6174036;23;20255;-86
2022/02/26 03:42:31;;;;;;;4.77;2.40;;;2.80;84.80;;;;;;6200653;23;20225;-88
2022/02/26 03:45:00;;;;;;;5.70;2.40;;;2.70;85.30;;;;;;6173971;23;20202;-86
2022/02/26 03:47:27;;;;;;;6.93;2.47;;;2.70;85.40;;;;;;6174196;23;20185;-86
2022/02/26 03:49:55;;;;;;;6.90;2.40;;;2.70;86.50;;;;;;6200947;23;20232;-86
2022/02/26 03:52:22;;;;;;;5.97;2.30;;;2.70;86.20;;;;;;6200740;23;20186;-87
2022/02/26 03:54:50;;;;;;;4.67;2.63;;;2.80;86.00;;;;;;6192224;23;20206;-86
2022/02/26 03:57:17;;;;;;;4.57;2.60;;;2.80;86.60;;;;;;6174345;23;20250;-86
2022/02/26 03:59:47;;;;;;;4.70;2.30;;;2.80;86.40;;;;;;6173490;23;20202;-86
2022/02/26 04:02:16;;;;;;;7.03;2.60;;;2.80;86.60;;;;;;6200938;23;20210;-86
2022/02/26 04:04:43;;;;;;;4.43;2.30;;;2.80;85.30;;;;;;6199984;23;20250;-86
2022/02/26 04:07:10;;;;;;;7.13;2.50;;;2.80;86.00;;;;;;6200614;23;20174;-86
2022/02/26 04:09:37;;;;;;;4.73;2.20;;;2.80;85.90;;;;;;6202167;23;20218;-86
2022/02/26 04:12:05;;;;;;;5.03;2.57;;;2.80;86.50;;;;;;6182710;23;20516;-85
2022/02/26 04:14:32;;;;;;;4.97;2.47;;;2.90;86.30;;;;;;6174121;23;20217;-86
2022/02/26 04:16:59;;;;;;;4.77;2.47;;;2.90;86.20;;;;;;6200271;23;20206;-85
2022/02/26 04:19:28;;;;;;;6.00;2.37;;;2.90;85.40;;;;;;6200009;23;20226;-86
2022/02/26 04:21:57;;;;;;;4.90;2.40;;;3.00;85.90;;;;;;6174363;23;20175;-86
2022/02/26 04:24:25;;;;;;;5.60;2.43;;;2.80;86.30;;;;;;6198961;23;20226;-86
2022/02/26 04:26:52;;;;;;;5.87;2.57;;;2.80;87.60;;;;;;6199836;23;20178;-87
2022/02/26 04:29:20;;;;;;;4.10;2.57;;;2.80;87.60;;;;;;6198323;23;20210;-87
2022/02/26 04:31:47;;;;;;;3.57;2.50;;;2.80;87.60;;;;;;6198426;23;20233;-86
2022/02/26 04:34:14;;;;;;;5.27;2.80;;;2.80;87.60;;;;;;6198538;23;20222;-86
2022/02/26 04:36:43;;;;;;;3.93;2.43;;;2.90;87.70;;;;;;6174579;23;20226;-88
2022/02/26 04:39:12;;;;;;;7.13;3.10;;;2.80;87.60;;;;;;6199263;23;20229;-86
2022/02/26 04:41:39;;;;;;;6.93;2.63;;;2.70;87.50;;;;;;6199676;23;20549;-86
2022/02/26 04:44:07;;;;;;;4.70;2.80;;;2.60;89.10;;;;;;6199382;23;20206;-86
2022/02/26 04:46:34;;;;;;;8.83;2.70;;;2.60;90.00;;;;;;6174514;23;20209;-86
2022/02/26 04:49:01;;;;;;;5.63;2.80;;;2.60;90.20;;;;;;6198810;23;20241;-86
2022/02/26 04:51:31;;;;;;;6.70;3.10;;;2.60;90.20;;;;;;6199258;23;20186;-86
2022/02/26 04:54:00;;;;;;;5.90;3.23;;;2.50;90.20;;;;;;6193156;23;20199;-86
2022/02/26 04:56:27;;;;;;;5.33;2.93;;;2.50;90.70;;;;;;6199230;23;20234;-85
2022/02/26 04:58:55;;;;;;;5.53;3.13;;;2.50;90.80;;;;;;6198231;23;20210;-87
2022/02/26 05:01:22;;;;;;;3.57;2.70;;;2.60;90.80;;;;;;6198699;23;20171;-86
2022/02/26 05:03:50;;;;;;;5.20;2.87;;;2.60;90.80;;;;;;6148129;23;20289;-87
2022/02/26 05:06:17;;;;;;;5.60;2.87;;;2.60;90.60;;;;;;6201083;23;20182;-86
2022/02/26 05:08:44;;;;;;;6.53;3.30;;;2.50;90.70;;;;;;6170580;23;20259;-86
2022/02/26 05:11:13;;;;;;;6.47;3.20;;;2.50;91.10;;;;;;6198667;23;20611;-86
2022/02/26 05:13:40;;;;;;;4.23;2.80;;;2.50;91.10;;;;;;6199316;23;20682;-86
2022/02/26 05:16:09;;;;;;;6.20;3.30;;;2.60;90.80;;;;;;6199555;23;20206;-86
2022/02/26 05:18:44;;;;;;;5.93;2.93;;;2.50;91.00;;;;;;6174023;23;20178;-86
2022/02/26 05:21:11;;;;;;;6.17;3.10;;;2.50;91.10;;;;;;6200371;23;20170;-85
2022/02/26 05:23:41;;;;;;;6.07;2.77;;;2.50;91.20;;;;;;6198219;23;20254;-86
2022/02/26 05:26:09;;;;;;;8.33;2.77;;;2.60;91.10;;;;;;6199686;23;20163;-86
2022/02/26 05:28:38;;;;;;;5.97;2.80;;;2.60;91.00;;;;;;6199264;23;20210;-87
2022/02/26 05:31:06;;;;;;;4.50;2.67;;;2.60;91.10;;;;;;6199565;23;20201;-85
2022/02/26 05:33:35;;;;;;;5.20;2.53;;;2.50;90.90;;;;;;6173166;23;20205;-86
2022/02/26 05:36:04;;;;;;;7.80;3.10;;;2.50;91.20;;;;;;6200232;23;20175;-85
2022/02/26 05:38:32;;;;;;;4.33;3.00;;;2.60;91.40;;;;;;6198168;23;20174;-86
2022/02/26 05:41:00;;;;;;;6.23;2.93;;;2.70;91.20;;;;;;6173344;23;20178;-86
2022/02/26 05:43:27;;;;;;;6.47;3.10;;;2.70;90.90;;;;;;6172998;23;20179;-85
2022/02/26 05:45:57;;;;;;;7.13;3.20;;;2.70;91.00;;;;;;6199311;23;20198;-87
2022/02/26 05:48:25;;;;;;;4.43;3.00;;;2.80;91.00;;;;;;6199178;23;20202;-86
2022/02/26 05:50:52;;;;;;;5.20;2.90;;;2.90;90.70;;;;;;6149760;23;1155435;-85
2022/02/26 05:53:19;;;;;;;4.90;3.13;;;2.80;90.90;;;;;;6200603;23;20198;-87
2022/02/26 05:55:46;;;;;;;6.40;2.90;;;2.90;90.30;;;;;;6202084;23;20199;-87
2022/02/26 05:58:13;;;;;;;5.90;3.07;;;2.90;90.20;;;;;;6200898;23;20190;-85
2022/02/26 06:00:40;;;;;;;5.20;2.83;;;2.90;89.30;;;;;;6175598;23;20185;-86
2022/02/26 06:03:09;;;;;;;4.50;2.73;;;2.90;89.50;;;;;;6175173;23;20211;-86
2022/02/26 06:05:37;;;;;;;5.83;3.17;;;2.90;89.00;;;;;;6175511;23;20234;-87
2022/02/26 06:08:06;;;;;;;4.80;2.87;;;2.90;89.10;;;;;;6200642;23;20245;-86
2022/02/26 06:10:36;;;;;;;7.00;3.20;;;2.80;89.00;;;;;;6201755;23;20206;-86
2022/02/26 06:13:04;;;;;;;6.70;3.43;;;2.70;90.10;;;;;;6200991;23;20226;-86
2022/02/26 06:15:38;;;;;;;4.53;3.17;;;2.80;90.20;;;;;;6175310;23;20190;-86
2022/02/26 06:18:05;;;;;;;9.50;3.60;;;2.80;89.80;;;;;;6200820;23;20163;-86
2022/02/26 06:20:35;;;;;;;5.23;3.10;;;2.70;90.00;;;;;;6201961;23;20209;-85
2022/02/26 06:23:04;;;;;;;5.00;3.60;;;2.80;90.00;;;;;;6199400;23;20226;-86
2022/02/26 06:25:31;;;;;;;7.50;3.53;;;2.80;89.10;;;;;;6202347;23;20490;-86
2022/02/26 06:27:58;;;;;;;6.27;3.70;;;2.70;90.00;;;;;;6174685;23;20175;-85
2022/02/26 06:30:36;;;;;;;7.60;3.27;;;2.70;90.10;;;;;;6175349;23;20198;-86
2022/02/26 06:33:04;;;;;;;7.87;3.37;;;2.70;89.70;;;;;;6150474;23;20174;-86
2022/02/26 06:35:37;;;;;;;6.27;3.67;;;2.60;90.10;;;;;;6201736;23;20181;-89
2022/02/26 06:38:04;;;;;;;5.93;3.40;;;2.60;90.60;;;;;;6209243;23;20223;-86
2022/02/26 06:40:31;;;;;;;8.03;3.30;;;2.70;90.60;;;;;;6201153;23;20170;-86
2022/02/26 06:42:59;;;;;;;6.73;3.40;;;2.80;90.60;;;;;;6199331;23;20210;-88
2022/02/26 06:45:26;;;;;;;7.17;3.70;;;2.80;90.40;;;;;;6173762;23;20189;-86
2022/02/26 06:58:06;;;;;;;6.97;3.47;;;2.80;90.30;;;;;;6197061;23;20197;-86
2022/02/26 07:00:33;;;;;;;8.57;3.20;;;2.90;90.00;;;;;;6197992;23;20253;-87
2022/02/26 07:03:00;;;;;;;8.27;4.17;;;3.00;89.00;;;;;;6197584;23;20535;-86
2022/02/26 07:05:28;;;;;;;11.03;3.40;;;2.90;89.30;;;;;;6196850;23;20206;-86
2022/02/26 07:07:55;;;;;;;8.33;3.73;;;3.00;88.90;;;;;;6170142;23;20178;-86
2022/02/26 07:10:22;;;;;;;6.03;3.30;;;3.00;87.80;;;;;;6170784;23;20194;-85
2022/02/26 07:12:52;;;;;;;5.63;3.67;;;3.00;89.10;;;;;;6197181;23;20163;-86
2022/02/26 07:15:21;;;;;;;6.87;3.80;;;2.90;89.40;;;;;;6145143;23;20200;-87
2022/02/26 07:17:48;;;;;;;11.77;3.90;;;2.90;90.00;;;;;;6195024;23;20261;-85
2022/02/26 07:20:15;;;;;;;6.73;3.60;;;3.00;89.70;;;;;;6193128;23;20306;-86
2022/02/26 07:22:42;;;;;;;7.83;3.40;;;3.10;87.80;;;;;;6193552;23;20238;-84
2022/02/26 07:25:45;;;;;;;9.07;3.70;;;3.10;87.80;;;;;;6196595;23;20206;-86
2022/02/26 07:28:13;;;;;;;6.80;3.07;;;3.10;87.80;;;;;;6198223;23;20233;-86
2022/02/26 07:30:42;;;;;;;6.30;3.63;;;3.10;87.80;;;;;;6199054;23;20576;-86
2022/02/26 07:34:05;;;;;;;9.07;4.23;;;3.00;87.70;;;;;;6198219;23;20257;-86
2022/02/26 07:36:34;;;;;;;9.80;3.60;;;3.00;87.70;;;;;;6198637;23;20225;-86
2022/02/26 07:39:02;;;;;;;9.13;3.77;;;2.90;87.70;;;;;;6197789;23;20230;-86
2022/02/26 07:41:32;;;;;;;6.57;3.90;;;3.00;88.10;;;;;;6197070;23;20198;-85
2022/02/26 07:43:59;;;;;;;7.70;3.80;;;3.00;88.80;;;;;;6195995;23;20229;-86
2022/02/26 07:46:30;;;;;;;9.77;3.60;;;3.00;88.20;;;;;;6193777;23;20178;-86
2022/02/26 07:49:13;;;;;;;8.47;3.87;;;3.10;87.90;;;;;;6196851;23;20206;-86
2022/02/26 07:51:41;;;;;;;8.20;4.00;;;2.90;88.10;;;;;;6196093;23;20630;-86
2022/02/26 07:54:09;;;;;;;7.00;3.20;;;2.90;89.00;;;;;;6197589;23;20240;-87
2022/02/26 07:56:42;;;;;;;8.97;3.13;;;2.90;88.10;;;;;;6198855;23;20196;-87
2022/02/26 07:59:10;;;;;;;6.73;3.13;;;2.90;88.80;;;;;;6198150;23;20207;-86
2022/02/26 08:01:39;;;;;;;9.73;3.00;;;3.00;88.70;;;;;;6201003;23;20222;-88
2022/02/26 08:04:17;;;;;;;7.30;3.57;;;3.20;87.90;;;;;;6198229;23;20214;-85
2022/02/26 08:06:44;;;;;;;9.53;3.70;;;3.20;87.90;;;;;;6198312;23;20159;-87
2022/02/26 08:12:33;;;;;;;7.53;3.93;;;3.30;87.90;;;;;;6196388;23;20209;-85
2022/02/26 08:15:21;;;;;;;9.10;4.17;;;3.30;87.90;;;;;;6169447;23;20198;-87
2022/02/26 08:17:50;;;;;;;10.43;4.00;;;3.50;88.00;;;;;;6196790;23;20285;-87
2022/02/26 08:20:19;;;;;;;11.00;3.70;;;3.60;88.10;;;;;;6144935;23;20203;-84
2022/02/26 08:22:55;;;;;;;8.07;3.80;;;3.70;86.50;;;;;;6195411;23;20179;-86
2022/02/26 08:25:23;;;;;;;9.70;3.77;;;3.80;84.20;;;;;;6194301;23;20202;-86
2022/02/26 08:28:05;;;;;;;8.17;3.50;;;3.90;82.80;;;;;;6193952;23;20202;-87
2022/02/26 08:30:32;;;;;;;9.43;4.10;;;3.90;83.40;;;;;;6193762;23;20245;-86
2022/02/26 08:33:01;;;;;;;10.77;4.57;;;4.10;83.00;;;;;;6189151;23;20213;-86
2022/02/26 08:35:28;;;;;;;6.53;3.80;;;4.00;82.20;;;;;;6190029;23;20185;-86
2022/02/26 08:37:55;;;;;;;7.30;3.90;;;4.10;82.00;;;;;;6190408;23;20186;-84
2022/02/26 08:40:23;;;;;;;10.83;4.33;;;4.10;80.50;;;;;;6187854;23;20182;-84
2022/02/26 08:42:50;;;;;;;9.03;3.83;;;4.20;81.30;;;;;;6189407;23;20562;-86
2022/02/26 08:45:17;;;;;;;8.00;3.93;;;4.20;80.70;;;;;;6188827;23;20539;-84
2022/02/26 08:47:45;;;;;;;9.27;3.53;;;4.30;78.30;;;;;;6165698;23;20610;-84
2022/02/26 08:50:19;;;;;;;11.57;4.50;;;4.50;75.90;;;;;;6189313;23;20214;-83
2022/02/26 08:52:47;;;;;;;6.67;3.37;;;4.50;75.50;;;;;;6194362;23;20159;-84
2022/02/26 08:55:19;;;;;;;7.80;3.30;;;4.40;74.70;;;;;;6193689;23;20791;-84
2022/02/26 08:57:46;;;;;;;9.57;4.00;;;4.30;69.00;;;;;;6194375;23;20182;-85
2022/02/26 09:00:19;;;;;;;6.67;3.57;;;4.30;71.30;;;;;;6196126;23;20241;-83
2022/02/26 09:02:47;;;;;;;8.23;3.80;;;4.20;73.30;;;;;;6199462;23;20170;-85
2022/02/26 09:05:17;;;;;;;11.00;4.10;;;3.90;73.20;;;;;;6204083;23;20230;-85
2022/02/26 09:07:56;;;;;;;12.67;3.60;;;3.80;76.20;;;;;;6208590;23;20163;-83
2022/02/26 09:10:24;;;;;;;8.57;4.03;;;4.00;76.60;;;;;;6196908;23;20197;-84
2022/02/26 09:12:51;;;;;;;7.87;3.77;;;4.10;76.10;;;;;;6196119;23;20203;-85
2022/02/26 09:15:18;;;;;;;7.53;3.97;;;4.20;73.20;;;;;;6193853;23;20281;-87
2022/02/26 09:17:45;;;;;;;12.73;4.33;;;4.20;72.40;;;;;;6193061;23;20550;-87
2022/02/26 09:20:13;;;;;;;8.73;4.23;;;4.30;69.00;;;;;;6190434;23;20894;-87
2022/02/26 09:22:46;;;;;;;7.93;3.90;;;4.30;69.00;;;;;;6193479;23;20178;-85
2022/02/26 09:25:14;;;;;;;9.87;4.13;;;4.50;70.50;;;;;;6167107;23;20217;-86
2022/02/26 09:27:55;;;;;;;7.73;4.10;;;4.50;69.20;;;;;;6196979;23;20173;-86
2022/02/26 09:30:28;;;;;;;8.17;4.17;;;4.40;69.10;;;;;;6196453;23;20203;-90
2022/02/26 09:32:55;;;;;;;11.23;3.53;;;4.50;69.30;;;;;;6197089;23;20250;-86
2022/02/26 09:35:22;;;;;;;5.90;3.00;;;4.60;67.70;;;;;;6197128;23;20285;-84
2022/02/26 09:37:52;;;;;;;8.53;3.13;;;4.60;64.30;;;;;;6196956;23;20262;-85
2022/02/26 09:40:19;;;;;;;8.67;3.50;;;4.60;62.20;;;;;;6199023;23;20206;-88
2022/02/26 09:42:49;;;;;;;9.13;3.63;;;4.60;61.50;;;;;;6199128;23;20197;-85
2022/02/26 09:45:16;;;;;;;10.93;3.63;;;4.70;60.70;;;;;;6194702;23;20198;-85
2022/02/26 09:47:43;;;;;;;8.83;3.70;;;4.90;58.20;;;;;;6146046;23;20662;-86
2022/02/26 09:50:11;;;;;;;6.87;3.17;;;5.00;56.10;;;;;;6197569;23;20209;-88
2022/02/26 09:52:42;;;;;;;9.23;3.43;;;5.10;52.60;;;;;;6197913;23;20198;-87
2022/02/26 09:55:12;;;;;;;9.63;3.33;;;5.00;54.00;;;;;;6199844;23;20230;-86
2022/02/26 09:57:55;;;;;;;9.13;3.00;;;5.10;54.30;;;;;;6200402;23;20190;-85
2022/02/26 10:00:24;;;;;;;7.93;2.90;;;5.30;49.10;;;;;;6192648;23;20186;-85
2022/02/26 10:02:57;;;;;;;5.23;2.87;;;5.60;46.40;;;;;;6201951;23;20200;-85
2022/02/26 10:06:03;;;;;;;9.90;2.80;;;5.70;46.50;;;;;;6200867;23;20178;-87
2022/02/26 10:08:36;;;;;;;8.93;2.90;;;5.80;44.90;;;;;;6195890;23;20234;-87
2022/02/26 10:11:05;;;;;;;6.23;2.87;;;5.80;45.00;;;;;;6196054;23;20246;-87
2022/02/26 10:13:41;;;;;;;7.80;2.92;;;6.30;46.50;;;;;;6192034;23;20265;-86
2022/02/26 10:16:08;;;;;;;5.93;2.67;;;7.00;43.40;;;;;;6193543;23;20167;-87
2022/02/26 10:18:35;;;;;;;8.02;2.90;;;7.90;36.00;;;;;;6194325;23;20222;-86
2022/02/26 10:21:04;;;;;;;11.30;2.70;;;8.20;32.90;;;;;;6196569;23;20178;-86
2022/02/26 10:23:32;;;;;;;5.10;2.15;;;8.40;32.10;;;;;;6170213;23;20658;-86
2022/02/26 10:26:13;;;;;;;8.57;2.95;;;8.20;29.60;;;;;;6171988;23;20163;-89
2022/02/26 10:28:59;;;;;;;;;;;;;;;;;;;;;
2022/02/26 10:48:21;;;;;;;6.28;2.15;;;8.50;27.70;;;;;;5992647;23;20683;-86
2022/02/26 10:50:51;;;;;;;10.02;2.38;;;8.10;29.00;;;;;;6025750;23;20204;-86
2022/02/26 11:03:27;;;;;;;5.93;2.08;;;9.40;22.50;;;;;;6138647;23;20176;-87
2022/02/26 11:05:55;;;;;;;4.88;1.88;;;8.60;24.00;;;;;;6168929;23;20206;-86
2022/02/26 11:08:24;;;;;;;6.10;1.73;;;8.20;23.80;;;;;;6193985;23;20270;-86
2022/02/26 11:10:53;;;;;;;6.05;1.90;;;8.00;23.60;;;;;;6194471;23;20226;-86
2022/02/26 11:13:23;;;;;;;6.00;2.00;;;7.70;24.40;;;;;;6193572;23;20217;-86
2022/02/26 11:19:16;;;;;;;4.90;1.60;;;7.30;25.50;;;;;;6194179;23;20202;-86
2022/02/26 11:21:54;;;;;;;5.03;1.75;;;7.10;25.40;;;;;;6194764;23;20276;-87
2022/02/26 11:24:21;;;;;;;5.18;1.88;;;6.80;26.00;;;;;;6194702;23;20206;-86
2022/02/26 11:26:49;;;;;;;6.32;1.83;;;6.70;27.50;;;;;;6194131;23;20262;-87
2022/02/26 11:29:18;;;;;;;3.47;1.50;;;6.60;27.60;;;;;;6193208;23;20273;-86
2022/02/26 11:31:48;;;;;;;5.77;1.67;;;6.50;28.50;;;;;;6199180;23;20242;-89
2022/02/26 11:34:23;;;;;;;6.40;1.70;;;6.70;28.30;;;;;;6210171;23;20213;-87
2022/02/26 11:36:56;;;;;;;6.87;1.90;;;6.70;25.90;;;;;;6170338;23;20159;-86
2022/02/26 11:39:26;;;;;;;6.77;1.90;;;6.60;26.70;;;;;;6193054;23;20257;-86
2022/02/26 11:42:22;;;;;;;6.97;1.60;;;6.50;27.30;;;;;;6194486;23;20171;-87
2022/02/26 11:44:59;;;;;;;4.97;2.00;;;7.00;26.60;;;;;;6192754;23;20250;-87
2022/02/26 11:47:34;;;;;;;6.60;1.83;;;7.20;25.80;;;;;;6192118;23;20206;-87
2022/02/26 11:50:06;;;;;;;6.47;1.80;;;7.00;26.00;;;;;;6192328;23;20580;-85
2022/02/26 11:52:47;;;;;;;5.40;1.70;;;6.90;27.00;;;;;;6194979;23;20169;-86
2022/02/26 11:58:38;;;;;;;8.90;2.42;;;6.60;30.10;;;;;;6175373;23;20192;-86
2022/02/26 12:01:11;;;;;;;4.67;1.80;;;6.70;30.40;;;;;;6194241;23;20505;-86
2022/02/26 12:04:10;;;;;;;8.57;2.00;;;6.90;29.00;;;;;;6195113;23;20672;-89
2022/02/26 12:06:40;;;;;;;6.65;2.20;;;6.90;28.40;;;;;;6195183;23;20214;-87
2022/02/26 12:09:21;;;;;;;6.25;2.00;;;7.00;28.70;;;;;;6194102;23;20487;-86
2022/02/26 12:15:17;;;;;;;7.43;1.88;;;7.00;28.20;;;;;;6193201;23;20209;-88
2022/02/26 12:18:22;;;;;;;4.95;1.80;;;6.80;28.40;;;;;;6194634;23;20201;-86
2022/02/26 12:21:00;;;;;;;7.35;1.92;;;6.90;27.50;;;;;;6195000;23;20210;-86
2022/02/26 12:23:28;;;;;;;7.83;2.20;;;7.00;27.00;;;;;;6197071;23;20171;-87
2022/02/26 12:26:02;;;;;;;4.77;1.63;;;6.90;26.80;;;;;;6195773;23;20171;-86
2022/02/26 12:28:30;;;;;;;7.47;2.30;;;6.80;26.40;;;;;;6195557;23;20166;-86
2022/02/26 12:31:03;;;;;;;4.85;1.70;;;6.80;27.40;;;;;;6195168;23;20590;-86
2022/02/26 12:33:38;;;;;;;2.92;1.60;;;7.20;25.60;;;;;;6194268;23;20527;-88
2022/02/26 12:36:14;;;;;;;5.78;1.85;;;7.30;26.50;;;;;;6191081;23;20200;-87
2022/02/26 12:38:51;;;;;;;4.50;1.70;;;7.00;26.20;;;;;;6194761;23;20185;-87
2022/02/26 12:41:32;;;;;;;9.20;2.00;;;7.10;26.00;;;;;;6194324;23;20174;-88
2022/02/26 12:44:00;;;;;;;7.05;2.08;;;6.80;26.40;;;;;;6167993;23;20221;-90
2022/02/26 12:46:29;;;;;;;5.05;1.70;;;6.80;27.30;;;;;;6193910;23;20202;-88
2022/02/26 12:48:57;;;;;;;3.70;1.92;;;6.80;27.30;;;;;;6193883;23;20206;-88
2022/02/26 12:51:25;;;;;;;5.20;1.70;;;6.90;26.10;;;;;;6193797;23;20194;-87
2022/02/26 12:53:54;;;;;;;4.85;1.75;;;7.10;25.10;;;;;;6194729;23;20198;-91
2022/02/26 12:56:33;;;;;;;4.87;1.50;;;6.90;25.80;;;;;;6169109;23;20187;-87
2022/02/26 12:59:11;;;;;;;3.75;1.90;;;6.90;24.70;;;;;;6167709;23;20237;-88
2022/02/26 13:01:58;;;;;;;5.45;1.70;;;6.90;24.60;;;;;;6195758;23;20214;-85
2022/02/26 13:04:31;;;;;;;4.20;1.90;;;6.80;23.40;;;;;;6194603;23;20210;-86
2022/02/26 13:07:01;;;;;;;3.55;1.73;;;6.60;24.50;;;;;;6194217;23;20163;-86
2022/02/26 13:09:29;;;;;;;9.17;1.63;;;6.60;24.10;;;;;;6193262;23;20206;-87
2022/02/26 13:11:58;;;;;;;6.37;1.87;;;6.50;23.50;;;;;;6194317;23;20254;-86
2022/02/26 13:14:26;;;;;;;5.03;1.50;;;6.60;22.50;;;;;;6193443;23;20226;-87
2022/02/26 13:16:57;;;;;;;6.40;1.70;;;6.50;23.50;;;;;;6193322;23;20159;-87
2022/02/26 13:19:25;;;;;;;5.15;1.60;;;6.30;24.80;;;;;;6192977;23;20705;-86
2022/02/26 13:21:52;;;;;;;5.10;1.63;;;6.60;26.10;;;;;;6193189;23;20213;-86
2022/02/26 13:24:44;;;;;;;4.63;1.60;;;6.70;23.80;;;;;;6192033;23;20289;-86
2022/02/26 13:27:18;;;;;;;5.75;1.75;;;6.60;24.20;;;;;;6194572;23;20174;-88
2022/02/26 13:29:47;;;;;;;5.67;2.00;;;6.60;25.10;;;;;;6192226;23;20209;-91
2022/02/26 13:32:23;;;;;;;7.63;2.27;;;6.90;26.60;;;;;;6190560;23;20198;-88
2022/02/26 13:35:15;;;;;;;5.57;1.77;;;6.80;26.60;;;;;;6192874;23;20673;-87
2022/02/26 13:37:56;;;;;;;5.60;2.00;;;7.10;27.50;;;;;;6190803;23;20182;-89
2022/02/26 13:40:26;;;;;;;6.83;2.20;;;7.40;24.90;;;;;;6166014;23;20198;-87
2022/02/26 13:43:01;;;;;;;7.50;2.20;;;7.20;24.70;;;;;;6192612;23;20466;-88
2022/02/26 13:45:33;;;;;;;7.93;2.10;;;7.10;26.70;;;;;;6165732;23;20254;-87
2022/02/26 13:48:00;;;;;;;11.80;2.20;;;7.00;27.00;;;;;;6195181;23;20253;-88
2022/02/26 13:50:27;;;;;;;28.97;17.23;;;6.70;27.10;;;;;;6168623;23;20213;-90
2022/02/26 13:52:55;;;;;;;36.23;22.27;;;6.40;28.80;;;;;;6194738;23;20159;-88
2022/02/26 13:55:27;;;;;;;8.60;2.05;;;6.30;30.70;;;;;;6196428;23;20190;-86
2022/02/26 13:57:54;;;;;;;8.40;2.73;;;6.00;29.80;;;;;;6199332;23;20237;-86
2022/02/26 14:00:24;;;;;;;5.37;2.10;;;6.00;30.30;;;;;;6197900;23;20226;-87
2022/02/26 14:03:00;;;;;;;9.50;2.93;;;6.00;30.40;;;;;;6202707;23;20163;-88
2022/02/26 14:05:31;;;;;;;6.93;2.23;;;6.20;30.50;;;;;;6204004;23;20218;-88
2022/02/26 14:07:58;;;;;;;119.37;82.93;;;6.60;29.20;;;;;;6168093;23;20187;-88
2022/02/26 14:10:26;;;;;;;6.60;2.80;;;6.40;31.20;;;;;;6194633;23;20234;-88
2022/02/26 14:12:58;;;;;;;7.37;2.37;;;6.70;27.50;;;;;;6168397;23;20175;-88